VLG112 LPPT-LEBL
Flight info
| Callsign | VLG112 |
|---|---|
| Flight time | 1h 19m |
| Altitude | 32000 |
| Route | ORVED DCT UREDI DCT DIPOL DCT RBO DCT PINAR DCT SEGRE DCT BRITO DCT PISUS DCT PONEN T600 CASPE |
| Aircraft | A21N/M-SDE2E3FGHIJ1RWXY/LB1 |
Departure
| Time | 2026-05-07 11:38 |
|---|---|
| Airport | Lisbon Humberto Delgado Airport (LPPT) |
Arrival
| Time | 2026-05-07 12:57 |
|---|---|
| Airport | Josep Tarradellas Barcelona-El Prat Airport (LEBL) |
| Time | Latitude | Longitude | Altitude | Speed | Heading |
|---|---|---|---|---|---|
| 2026-05-07 10:38 | 38.77668 | -9.13209 | 343 ft | 0 kts | 121° |
| 2026-05-07 11:28 | 38.77680 | -9.13234 | 345 ft | 4 kts | 120° |
| 2026-05-07 11:29 | 38.77694 | -9.13264 | 352 ft | 4 kts | 121° |
| 2026-05-07 11:29 | 38.77708 | -9.13293 | 353 ft | 4 kts | 124° |
| 2026-05-07 11:29 | 38.77724 | -9.13320 | 355 ft | 4 kts | 137° |
| 2026-05-07 11:29 | 38.77741 | -9.13338 | 357 ft | 4 kts | 153° |
| 2026-05-07 11:30 | 38.77766 | -9.13348 | 356 ft | 4 kts | 169° |
| 2026-05-07 11:30 | 38.77776 | -9.13350 | 358 ft | 1 kts | 167° |
| 2026-05-07 11:32 | 38.77774 | -9.13349 | 358 ft | 1 kts | 167° |
| 2026-05-07 11:32 | 38.77762 | -9.13346 | 356 ft | 2 kts | 167° |
| 2026-05-07 11:33 | 38.77746 | -9.13343 | 358 ft | 3 kts | 178° |
| 2026-05-07 11:33 | 38.77710 | -9.13357 | 353 ft | 8 kts | 202° |
| 2026-05-07 11:33 | 38.77645 | -9.13390 | 350 ft | 13 kts | 202° |
| 2026-05-07 11:33 | 38.77551 | -9.13441 | 351 ft | 17 kts | 204° |
| 2026-05-07 11:34 | 38.77454 | -9.13526 | 355 ft | 16 kts | 203° |
| 2026-05-07 11:34 | 38.77342 | -9.13514 | 352 ft | 15 kts | 168° |
| 2026-05-07 11:34 | 38.77279 | -9.13603 | 355 ft | 16 kts | 258° |
| 2026-05-07 11:34 | 38.77256 | -9.13749 | 361 ft | 17 kts | 258° |
| 2026-05-07 11:35 | 38.77195 | -9.13865 | 364 ft | 17 kts | 203° |
| 2026-05-07 11:35 | 38.77086 | -9.13924 | 359 ft | 17 kts | 203° |
| 2026-05-07 11:35 | 38.76974 | -9.13985 | 356 ft | 18 kts | 203° |
| 2026-05-07 11:35 | 38.76857 | -9.14046 | 350 ft | 18 kts | 202° |
| 2026-05-07 11:36 | 38.76738 | -9.14110 | 353 ft | 19 kts | 203° |
| 2026-05-07 11:36 | 38.76637 | -9.14165 | 346 ft | 14 kts | 203° |
| 2026-05-07 11:36 | 38.76601 | -9.14257 | 346 ft | 14 kts | 291° |
| 2026-05-07 11:36 | 38.76648 | -9.14365 | 346 ft | 15 kts | 336° |
| 2026-05-07 11:37 | 38.76751 | -9.14330 | 348 ft | 19 kts | 23° |
| 2026-05-07 11:37 | 38.77000 | -9.14199 | 357 ft | 68 kts | 21° |
| 2026-05-07 11:37 | 38.77715 | -9.13815 | 370 ft | 155 kts | 22° |
| 2026-05-07 11:37 | 38.78925 | -9.13166 | 750 ft | 201 kts | 20° |
| 2026-05-07 11:38 | 38.80188 | -9.12417 | 2084 ft | 200 kts | 24° |
| 2026-05-07 11:38 | 38.81425 | -9.11493 | 2676 ft | 212 kts | 29° |
| 2026-05-07 11:38 | 38.82745 | -9.10503 | 3141 ft | 231 kts | 28° |
| 2026-05-07 11:38 | 38.84213 | -9.09425 | 3549 ft | 253 kts | 28° |
| 2026-05-07 11:39 | 38.85781 | -9.08277 | 4150 ft | 266 kts | 29° |
| 2026-05-07 11:39 | 38.87405 | -9.07087 | 4894 ft | 272 kts | 30° |
| 2026-05-07 11:39 | 38.89022 | -9.05801 | 5654 ft | 275 kts | 40° |
| 2026-05-07 11:39 | 38.90237 | -9.03923 | 6412 ft | 276 kts | 63° |
| 2026-05-07 11:40 | 38.91081 | -9.01700 | 7142 ft | 278 kts | 67° |
| 2026-05-07 11:40 | 38.91896 | -8.99424 | 7866 ft | 282 kts | 67° |
| 2026-05-07 11:40 | 38.92732 | -8.97123 | 8603 ft | 286 kts | 66° |
| 2026-05-07 11:40 | 38.93588 | -8.94793 | 9318 ft | 291 kts | 66° |
| 2026-05-07 11:41 | 38.94446 | -8.92461 | 9771 ft | 294 kts | 66° |
| 2026-05-07 11:41 | 38.95340 | -8.90054 | 9920 ft | 309 kts | 65° |
| 2026-05-07 11:41 | 38.96305 | -8.87463 | 9964 ft | 335 kts | 65° |
| 2026-05-07 11:41 | 38.97350 | -8.84650 | 9970 ft | 361 kts | 65° |
| 2026-05-07 11:42 | 38.98453 | -8.81692 | 9961 ft | 368 kts | 65° |
| 2026-05-07 11:42 | 38.99556 | -8.78715 | 10051 ft | 369 kts | 65° |
| 2026-05-07 11:42 | 39.00664 | -8.75737 | 10608 ft | 372 kts | 65° |
| 2026-05-07 11:42 | 39.01799 | -8.72720 | 11251 ft | 375 kts | 65° |
| 2026-05-07 11:43 | 39.02941 | -8.69685 | 11913 ft | 378 kts | 64° |
| 2026-05-07 11:43 | 39.04095 | -8.66614 | 12547 ft | 383 kts | 64° |
| 2026-05-07 11:43 | 39.05257 | -8.63514 | 13197 ft | 386 kts | 64° |
| 2026-05-07 11:43 | 39.06424 | -8.60387 | 13837 ft | 390 kts | 64° |
| 2026-05-07 11:44 | 39.07604 | -8.57223 | 14410 ft | 393 kts | 64° |
| 2026-05-07 11:44 | 39.08790 | -8.54032 | 14971 ft | 396 kts | 64° |
| 2026-05-07 11:44 | 39.09986 | -8.50819 | 15545 ft | 399 kts | 63° |
| 2026-05-07 11:44 | 39.11177 | -8.47623 | 16101 ft | 403 kts | 63° |
| 2026-05-07 11:45 | 39.12398 | -8.44360 | 16667 ft | 406 kts | 63° |
| 2026-05-07 11:45 | 39.13635 | -8.41067 | 17234 ft | 409 kts | 63° |
| 2026-05-07 11:45 | 39.14877 | -8.37745 | 17793 ft | 413 kts | 63° |
| 2026-05-07 11:45 | 39.16120 | -8.34398 | 18321 ft | 416 kts | 63° |
| 2026-05-07 11:46 | 39.17374 | -8.31014 | 18790 ft | 420 kts | 62° |
| 2026-05-07 11:46 | 39.18634 | -8.27607 | 19258 ft | 423 kts | 62° |
| 2026-05-07 11:46 | 39.19903 | -8.24171 | 19710 ft | 427 kts | 62° |
| 2026-05-07 11:46 | 39.21181 | -8.20701 | 20148 ft | 430 kts | 62° |
| 2026-05-07 11:47 | 39.22465 | -8.17190 | 20586 ft | 434 kts | 62° |
| 2026-05-07 11:47 | 39.23757 | -8.13645 | 21017 ft | 437 kts | 62° |
| 2026-05-07 11:47 | 39.25037 | -8.10130 | 21436 ft | 440 kts | 61° |
| 2026-05-07 11:47 | 39.26354 | -8.06529 | 21846 ft | 444 kts | 61° |
| 2026-05-07 11:48 | 39.27684 | -8.02912 | 22250 ft | 448 kts | 60° |
| 2026-05-07 11:48 | 39.29021 | -7.99254 | 22661 ft | 451 kts | 60° |
| 2026-05-07 11:48 | 39.30359 | -7.95574 | 23071 ft | 455 kts | 60° |
| 2026-05-07 11:48 | 39.31709 | -7.91870 | 23488 ft | 457 kts | 60° |
| 2026-05-07 11:49 | 39.33073 | -7.88141 | 23832 ft | 460 kts | 60° |
| 2026-05-07 11:49 | 39.34443 | -7.84393 | 24174 ft | 463 kts | 60° |
| 2026-05-07 11:49 | 39.35816 | -7.80623 | 24506 ft | 465 kts | 60° |
| 2026-05-07 11:49 | 39.37192 | -7.76824 | 24849 ft | 468 kts | 60° |
| 2026-05-07 11:50 | 39.38574 | -7.73000 | 25161 ft | 471 kts | 60° |
| 2026-05-07 11:50 | 39.39964 | -7.69148 | 25484 ft | 474 kts | 60° |
| 2026-05-07 11:50 | 39.41375 | -7.65281 | 25812 ft | 476 kts | 59° |
| 2026-05-07 11:50 | 39.42782 | -7.61439 | 26118 ft | 479 kts | 59° |
| 2026-05-07 11:51 | 39.44205 | -7.57530 | 26471 ft | 481 kts | 59° |
| 2026-05-07 11:51 | 39.45628 | -7.53595 | 26789 ft | 483 kts | 59° |
| 2026-05-07 11:51 | 39.47051 | -7.49639 | 27157 ft | 484 kts | 59° |
| 2026-05-07 11:51 | 39.48468 | -7.45687 | 27554 ft | 484 kts | 59° |
| 2026-05-07 11:52 | 39.49885 | -7.41741 | 27944 ft | 484 kts | 59° |
| 2026-05-07 11:52 | 39.51301 | -7.37791 | 28338 ft | 483 kts | 59° |
| 2026-05-07 11:52 | 39.52716 | -7.33843 | 28716 ft | 483 kts | 59° |
| 2026-05-07 11:52 | 39.54127 | -7.29897 | 29075 ft | 483 kts | 58° |
| 2026-05-07 11:53 | 39.55541 | -7.25940 | 29440 ft | 483 kts | 58° |
| 2026-05-07 11:53 | 39.56952 | -7.21982 | 29800 ft | 483 kts | 58° |
| 2026-05-07 11:53 | 39.58336 | -7.18084 | 30200 ft | 482 kts | 58° |
| 2026-05-07 11:53 | 39.59736 | -7.14133 | 30547 ft | 480 kts | 58° |
| 2026-05-07 11:54 | 39.61133 | -7.10202 | 30835 ft | 480 kts | 58° |
| 2026-05-07 11:54 | 39.62534 | -7.06265 | 31110 ft | 480 kts | 58° |
| 2026-05-07 11:54 | 39.63929 | -7.02331 | 31371 ft | 480 kts | 58° |
| 2026-05-07 11:54 | 39.65323 | -6.98383 | 31629 ft | 481 kts | 58° |
| 2026-05-07 11:55 | 39.66721 | -6.94425 | 31868 ft | 481 kts | 58° |
| 2026-05-07 11:55 | 39.69537 | -6.86443 | 31917 ft | 492 kts | 58° |
| 2026-05-07 11:56 | 39.72400 | -6.78254 | 31910 ft | 499 kts | 59° |
| 2026-05-07 11:56 | 39.75231 | -6.70073 | 31885 ft | 499 kts | 59° |
| 2026-05-07 11:57 | 39.78102 | -6.61848 | 31882 ft | 499 kts | 59° |
| 2026-05-07 11:57 | 39.80973 | -6.53637 | 31881 ft | 499 kts | 59° |
| 2026-05-07 11:58 | 39.83847 | -6.45403 | 31913 ft | 499 kts | 59° |
| 2026-05-07 11:58 | 39.86702 | -6.37174 | 31898 ft | 497 kts | 61° |
| 2026-05-07 11:59 | 39.89446 | -6.28922 | 31885 ft | 497 kts | 61° |
| 2026-05-07 11:59 | 39.92192 | -6.20648 | 31884 ft | 497 kts | 61° |
| 2026-05-07 12:00 | 39.94918 | -6.12423 | 31882 ft | 497 kts | 61° |
| 2026-05-07 12:00 | 39.97648 | -6.04149 | 31900 ft | 496 kts | 62° |
| 2026-05-07 12:01 | 40.00353 | -5.95878 | 31888 ft | 495 kts | 62° |
| 2026-05-07 12:01 | 40.03100 | -5.87623 | 31884 ft | 496 kts | 62° |
| 2026-05-07 12:02 | 40.05819 | -5.79353 | 31881 ft | 496 kts | 62° |
| 2026-05-07 12:02 | 40.08524 | -5.71066 | 31898 ft | 496 kts | 62° |
| 2026-05-07 12:03 | 40.11220 | -5.62788 | 31892 ft | 494 kts | 64° |
| 2026-05-07 12:03 | 40.13896 | -5.54555 | 31898 ft | 492 kts | 64° |
| 2026-05-07 12:04 | 40.16547 | -5.46366 | 31885 ft | 491 kts | 64° |
| 2026-05-07 12:04 | 40.19190 | -5.38184 | 31887 ft | 491 kts | 64° |
| 2026-05-07 12:05 | 40.21839 | -5.29952 | 31897 ft | 490 kts | 65° |
| 2026-05-07 12:05 | 40.24478 | -5.21731 | 31886 ft | 490 kts | 66° |
| 2026-05-07 12:06 | 40.27109 | -5.13505 | 31914 ft | 490 kts | 65° |
| 2026-05-07 12:06 | 40.29742 | -5.05254 | 31906 ft | 490 kts | 66° |
| 2026-05-07 12:07 | 40.32365 | -4.97007 | 31892 ft | 490 kts | 66° |
| 2026-05-07 12:07 | 40.34981 | -4.88758 | 31905 ft | 490 kts | 67° |
| 2026-05-07 12:08 | 40.37599 | -4.80491 | 31906 ft | 490 kts | 67° |
| 2026-05-07 12:08 | 40.40180 | -4.72298 | 31915 ft | 489 kts | 68° |
| 2026-05-07 12:09 | 40.42769 | -4.64051 | 31905 ft | 489 kts | 68° |
| 2026-05-07 12:09 | 40.45356 | -4.55800 | 31909 ft | 489 kts | 68° |
| 2026-05-07 12:10 | 40.47942 | -4.47515 | 31912 ft | 490 kts | 68° |
| 2026-05-07 12:10 | 40.50522 | -4.39231 | 31921 ft | 490 kts | 68° |
| 2026-05-07 12:11 | 40.53098 | -4.30938 | 31916 ft | 490 kts | 69° |
| 2026-05-07 12:11 | 40.55664 | -4.22641 | 31911 ft | 489 kts | 69° |
| 2026-05-07 12:12 | 40.58223 | -4.14339 | 31922 ft | 489 kts | 69° |
| 2026-05-07 12:12 | 40.60782 | -4.06028 | 31932 ft | 490 kts | 69° |
| 2026-05-07 12:13 | 40.63332 | -3.97711 | 31929 ft | 490 kts | 69° |
| 2026-05-07 12:13 | 40.65875 | -3.89391 | 31934 ft | 490 kts | 69° |
| 2026-05-07 12:14 | 40.68397 | -3.81109 | 31926 ft | 489 kts | 70° |
| 2026-05-07 12:14 | 40.70917 | -3.72806 | 31915 ft | 488 kts | 70° |
| 2026-05-07 12:15 | 40.73437 | -3.64490 | 31916 ft | 488 kts | 70° |
| 2026-05-07 12:15 | 40.75945 | -3.56177 | 31926 ft | 488 kts | 70° |
| 2026-05-07 12:16 | 40.78454 | -3.47855 | 31931 ft | 488 kts | 70° |
| 2026-05-07 12:16 | 40.80532 | -3.40925 | 31917 ft | 488 kts | 71° |
| 2026-05-07 12:17 | 40.83432 | -3.31218 | 31933 ft | 489 kts | 71° |
| 2026-05-07 12:17 | 40.85451 | -3.24176 | 31929 ft | 488 kts | 75° |
| 2026-05-07 12:18 | 40.87202 | -3.15547 | 31930 ft | 486 kts | 78° |
| 2026-05-07 12:18 | 40.88900 | -3.06900 | 31928 ft | 486 kts | 78° |
| 2026-05-07 12:19 | 40.90588 | -2.98284 | 31926 ft | 489 kts | 78° |
| 2026-05-07 12:19 | 40.92287 | -2.89575 | 31933 ft | 489 kts | 78° |
| 2026-05-07 12:20 | 40.93982 | -2.80867 | 31935 ft | 489 kts | 78° |
| 2026-05-07 12:20 | 40.95673 | -2.72159 | 31948 ft | 489 kts | 78° |
| 2026-05-07 12:21 | 40.97355 | -2.63426 | 31930 ft | 490 kts | 79° |
| 2026-05-07 12:21 | 40.99036 | -2.54681 | 31944 ft | 491 kts | 79° |
| 2026-05-07 12:22 | 41.00709 | -2.45910 | 31942 ft | 490 kts | 79° |
| 2026-05-07 12:22 | 41.02371 | -2.37148 | 31942 ft | 490 kts | 79° |
| 2026-05-07 12:23 | 41.04033 | -2.28378 | 31919 ft | 490 kts | 79° |
| 2026-05-07 12:23 | 41.05677 | -2.19645 | 31937 ft | 492 kts | 80° |
| 2026-05-07 12:24 | 41.07336 | -2.10842 | 31942 ft | 492 kts | 80° |
| 2026-05-07 12:24 | 41.08987 | -2.02038 | 31944 ft | 492 kts | 80° |
| 2026-05-07 12:25 | 41.10600 | -1.93232 | 31945 ft | 491 kts | 80° |
| 2026-05-07 12:25 | 41.12221 | -1.84401 | 31936 ft | 494 kts | 81° |
| 2026-05-07 12:26 | 41.13834 | -1.75541 | 31943 ft | 494 kts | 81° |
| 2026-05-07 12:26 | 41.15453 | -1.66680 | 31816 ft | 493 kts | 80° |
| 2026-05-07 12:27 | 41.17066 | -1.57815 | 31833 ft | 495 kts | 81° |
| 2026-05-07 12:27 | 41.17870 | -1.53367 | 31951 ft | 495 kts | 81° |
| 2026-05-07 12:27 | 41.18673 | -1.48914 | 32055 ft | 496 kts | 81° |
| 2026-05-07 12:27 | 41.19482 | -1.44465 | 32182 ft | 496 kts | 81° |
| 2026-05-07 12:28 | 41.20298 | -1.40006 | 32309 ft | 497 kts | 81° |
| 2026-05-07 12:28 | 41.21108 | -1.35546 | 32446 ft | 497 kts | 81° |
| 2026-05-07 12:28 | 41.21912 | -1.31081 | 32579 ft | 497 kts | 81° |
| 2026-05-07 12:28 | 41.22712 | -1.26677 | 32718 ft | 497 kts | 81° |
| 2026-05-07 12:29 | 41.23512 | -1.22199 | 32846 ft | 497 kts | 81° |
| 2026-05-07 12:29 | 41.24311 | -1.17734 | 32979 ft | 497 kts | 81° |
| 2026-05-07 12:29 | 41.25116 | -1.13272 | 33088 ft | 497 kts | 81° |
| 2026-05-07 12:29 | 41.25912 | -1.08795 | 33227 ft | 497 kts | 81° |
| 2026-05-07 12:30 | 41.26705 | -1.04325 | 33360 ft | 497 kts | 81° |
| 2026-05-07 12:30 | 41.27503 | -0.99854 | 33499 ft | 497 kts | 81° |
| 2026-05-07 12:30 | 41.28305 | -0.95374 | 33638 ft | 497 kts | 81° |
| 2026-05-07 12:30 | 41.29098 | -0.90906 | 33780 ft | 497 kts | 81° |
| 2026-05-07 12:31 | 41.29884 | -0.86425 | 33926 ft | 497 kts | 82° |
| 2026-05-07 12:31 | 41.30662 | -0.81951 | 34042 ft | 497 kts | 82° |
| 2026-05-07 12:31 | 41.31433 | -0.77479 | 34166 ft | 496 kts | 82° |
| 2026-05-07 12:32 | 41.32989 | -0.68521 | 34367 ft | 497 kts | 82° |
| 2026-05-07 12:32 | 41.33756 | -0.64101 | 34490 ft | 497 kts | 81° |
| 2026-05-07 12:32 | 41.34530 | -0.59608 | 34162 ft | 499 kts | 82° |
| 2026-05-07 12:32 | 41.35037 | -0.55059 | 33862 ft | 490 kts | 91° |
| 2026-05-07 12:33 | 41.34482 | -0.46192 | 33241 ft | 478 kts | 105° |
| 2026-05-07 12:33 | 41.33959 | -0.41823 | 32928 ft | 478 kts | 105° |
| 2026-05-07 12:33 | 41.33439 | -0.37443 | 32647 ft | 479 kts | 104° |
| 2026-05-07 12:34 | 41.32931 | -0.33060 | 32383 ft | 480 kts | 104° |
| 2026-05-07 12:34 | 41.32430 | -0.28672 | 32122 ft | 480 kts | 104° |
| 2026-05-07 12:34 | 41.31930 | -0.24275 | 31932 ft | 481 kts | 104° |
| 2026-05-07 12:34 | 41.31428 | -0.19870 | 31905 ft | 481 kts | 104° |
| 2026-05-07 12:35 | 41.30431 | -0.11132 | 31768 ft | 477 kts | 104° |
| 2026-05-07 12:35 | 41.29930 | -0.06767 | 30727 ft | 480 kts | 104° |
| 2026-05-07 12:35 | 41.29419 | -0.02361 | 29618 ft | 484 kts | 103° |
| 2026-05-07 12:36 | 41.28904 | 0.02060 | 28538 ft | 485 kts | 103° |
| 2026-05-07 12:36 | 41.28389 | 0.06501 | 27592 ft | 485 kts | 103° |
| 2026-05-07 12:36 | 41.27873 | 0.10928 | 26693 ft | 484 kts | 102° |
| 2026-05-07 12:36 | 41.27355 | 0.15343 | 25807 ft | 483 kts | 102° |
| 2026-05-07 12:37 | 41.26837 | 0.19740 | 24975 ft | 480 kts | 102° |
| 2026-05-07 12:37 | 41.26307 | 0.24111 | 24517 ft | 477 kts | 102° |
| 2026-05-07 12:37 | 41.25758 | 0.28442 | 24222 ft | 475 kts | 102° |
| 2026-05-07 12:37 | 41.25206 | 0.32769 | 23973 ft | 473 kts | 102° |
| 2026-05-07 12:38 | 41.24659 | 0.37071 | 23737 ft | 471 kts | 102° |
| 2026-05-07 12:38 | 41.24114 | 0.41362 | 23471 ft | 472 kts | 102° |
| 2026-05-07 12:38 | 41.23569 | 0.45658 | 23192 ft | 470 kts | 102° |
| 2026-05-07 12:38 | 41.23023 | 0.49926 | 22922 ft | 468 kts | 102° |
| 2026-05-07 12:39 | 41.22430 | 0.54168 | 22644 ft | 464 kts | 106° |
| 2026-05-07 12:39 | 41.21389 | 0.58184 | 22368 ft | 458 kts | 117° |
| 2026-05-07 12:39 | 41.19768 | 0.61780 | 22103 ft | 452 kts | 130° |
| 2026-05-07 12:39 | 41.17690 | 0.64873 | 21842 ft | 447 kts | 137° |
| 2026-05-07 12:40 | 41.15488 | 0.67778 | 21584 ft | 444 kts | 138° |
| 2026-05-07 12:40 | 41.13294 | 0.70649 | 21311 ft | 442 kts | 138° |
| 2026-05-07 12:40 | 41.11111 | 0.73528 | 21066 ft | 442 kts | 138° |
| 2026-05-07 12:40 | 41.08935 | 0.76407 | 20805 ft | 441 kts | 138° |
| 2026-05-07 12:41 | 41.06766 | 0.79284 | 20557 ft | 441 kts | 137° |
| 2026-05-07 12:41 | 41.04605 | 0.82152 | 20304 ft | 439 kts | 137° |
| 2026-05-07 12:41 | 41.02452 | 0.85014 | 20057 ft | 437 kts | 137° |
| 2026-05-07 12:41 | 41.00344 | 0.87906 | 19801 ft | 437 kts | 133° |
| 2026-05-07 12:42 | 40.98625 | 0.91171 | 19534 ft | 439 kts | 121° |
| 2026-05-07 12:42 | 40.97512 | 0.94906 | 19001 ft | 436 kts | 107° |
| 2026-05-07 12:42 | 40.96891 | 0.98823 | 18347 ft | 433 kts | 102° |
| 2026-05-07 12:42 | 40.96350 | 1.02715 | 17586 ft | 427 kts | 102° |
| 2026-05-07 12:43 | 40.95804 | 1.06566 | 16935 ft | 424 kts | 103° |
| 2026-05-07 12:43 | 40.95244 | 1.10385 | 16331 ft | 421 kts | 103° |
| 2026-05-07 12:43 | 40.94681 | 1.14174 | 15741 ft | 418 kts | 102° |
| 2026-05-07 12:43 | 40.94115 | 1.17938 | 15145 ft | 415 kts | 102° |
| 2026-05-07 12:44 | 40.93547 | 1.21677 | 14565 ft | 413 kts | 102° |
| 2026-05-07 12:44 | 40.92981 | 1.25395 | 13992 ft | 411 kts | 102° |
| 2026-05-07 12:44 | 40.92420 | 1.29092 | 13361 ft | 409 kts | 102° |
| 2026-05-07 12:44 | 40.91855 | 1.32774 | 12686 ft | 407 kts | 102° |
| 2026-05-07 12:45 | 40.91291 | 1.36434 | 12052 ft | 405 kts | 102° |
| 2026-05-07 12:45 | 40.90742 | 1.40031 | 11619 ft | 392 kts | 102° |
| 2026-05-07 12:45 | 40.90212 | 1.43493 | 11344 ft | 376 kts | 102° |
| 2026-05-07 12:45 | 40.89708 | 1.46772 | 11134 ft | 361 kts | 102° |
| 2026-05-07 12:46 | 40.89212 | 1.49992 | 10943 ft | 345 kts | 102° |
| 2026-05-07 12:46 | 40.88751 | 1.52985 | 10794 ft | 329 kts | 102° |
| 2026-05-07 12:46 | 40.88305 | 1.55873 | 10653 ft | 313 kts | 102° |
| 2026-05-07 12:46 | 40.87880 | 1.58630 | 10522 ft | 299 kts | 102° |
| 2026-05-07 12:47 | 40.87702 | 1.61308 | 10255 ft | 291 kts | 83° |
| 2026-05-07 12:47 | 40.88419 | 1.63776 | 9777 ft | 292 kts | 54° |
| 2026-05-07 12:47 | 40.89939 | 1.65528 | 9275 ft | 292 kts | 31° |
| 2026-05-07 12:47 | 40.91731 | 1.66762 | 8823 ft | 290 kts | 26° |
| 2026-05-07 12:48 | 40.93530 | 1.67952 | 8378 ft | 288 kts | 27° |
| 2026-05-07 12:48 | 40.95298 | 1.69174 | 7944 ft | 286 kts | 28° |
| 2026-05-07 12:48 | 40.97006 | 1.70495 | 7531 ft | 282 kts | 38° |
| 2026-05-07 12:48 | 40.98336 | 1.72373 | 7120 ft | 279 kts | 55° |
| 2026-05-07 12:49 | 40.99411 | 1.74502 | 6714 ft | 277 kts | 57° |
| 2026-05-07 12:49 | 41.00454 | 1.76634 | 6326 ft | 275 kts | 57° |
| 2026-05-07 12:49 | 41.01490 | 1.78738 | 5941 ft | 271 kts | 57° |
| 2026-05-07 12:49 | 41.02517 | 1.80806 | 5639 ft | 265 kts | 57° |
| 2026-05-07 12:50 | 41.03511 | 1.82799 | 5463 ft | 254 kts | 57° |
| 2026-05-07 12:50 | 41.04461 | 1.84695 | 5400 ft | 239 kts | 57° |
| 2026-05-07 12:50 | 41.05480 | 1.86422 | 5457 ft | 239 kts | 42° |
| 2026-05-07 12:50 | 41.06935 | 1.87450 | 5384 ft | 240 kts | 12° |
| 2026-05-07 12:51 | 41.08570 | 1.87383 | 5179 ft | 241 kts | 345° |
| 2026-05-07 12:51 | 41.10114 | 1.86511 | 4917 ft | 242 kts | 335° |
| 2026-05-07 12:51 | 41.11620 | 1.85522 | 4613 ft | 241 kts | 335° |
| 2026-05-07 12:51 | 41.13154 | 1.84539 | 4319 ft | 256 kts | 336° |
| 2026-05-07 12:52 | 41.14826 | 1.83719 | 4009 ft | 256 kts | 349° |
| 2026-05-07 12:52 | 41.16570 | 1.83249 | 3722 ft | 255 kts | 351° |
| 2026-05-07 12:52 | 41.18318 | 1.82821 | 3425 ft | 254 kts | 353° |
| 2026-05-07 12:52 | 41.20059 | 1.82884 | 3113 ft | 250 kts | 19° |
| 2026-05-07 12:53 | 41.21507 | 1.84077 | 2946 ft | 245 kts | 51° |
| 2026-05-07 12:53 | 41.22366 | 1.86005 | 2943 ft | 241 kts | 68° |
| 2026-05-07 12:53 | 41.23020 | 1.88062 | 2978 ft | 242 kts | 69° |
| 2026-05-07 12:53 | 41.23688 | 1.90134 | 2983 ft | 244 kts | 68° |
| 2026-05-07 12:54 | 41.24364 | 1.92185 | 2991 ft | 241 kts | 68° |
| 2026-05-07 12:54 | 41.25048 | 1.94230 | 2994 ft | 243 kts | 67° |
| 2026-05-07 12:54 | 41.25735 | 1.96245 | 2794 ft | 239 kts | 66° |
| 2026-05-07 12:54 | 41.26392 | 1.98155 | 2440 ft | 218 kts | 67° |
| 2026-05-07 12:55 | 41.27005 | 1.99949 | 1934 ft | 209 kts | 69° |
| 2026-05-07 12:55 | 41.27595 | 2.01689 | 1447 ft | 198 kts | 69° |
| 2026-05-07 12:55 | 41.28146 | 2.03161 | 946 ft | 162 kts | 65° |
| 2026-05-07 12:55 | 41.28595 | 2.04436 | 499 ft | 142 kts | 72° |
| 2026-05-07 12:56 | 41.28949 | 2.05622 | 257 ft | 135 kts | 71° |
| 2026-05-07 12:56 | 41.29338 | 2.06751 | 91 ft | 133 kts | 69° |
| 2026-05-07 12:56 | 41.29715 | 2.07865 | 28 ft | 127 kts | 68° |
| 2026-05-07 12:56 | 41.30032 | 2.08788 | 27 ft | 88 kts | 64° |
| 2026-05-07 12:57 | 41.30137 | 2.09150 | 22 ft | 14 kts | 94° |
| 2026-05-07 12:57 | 41.30130 | 2.09276 | 21 ft | 13 kts | 94° |
| 2026-05-07 12:57 | 41.30119 | 2.09390 | 21 ft | 11 kts | 120° |
| 2026-05-07 12:57 | 41.30049 | 2.09384 | 22 ft | 13 kts | 231° |
| 2026-05-07 12:58 | 41.30007 | 2.09270 | 22 ft | 15 kts | 245° |
| 2026-05-07 12:58 | 41.29962 | 2.09141 | 24 ft | 16 kts | 247° |
| 2026-05-07 12:58 | 41.29916 | 2.08998 | 23 ft | 17 kts | 246° |
| 2026-05-07 12:58 | 41.29866 | 2.08844 | 27 ft | 19 kts | 246° |
| 2026-05-07 12:59 | 41.29812 | 2.08681 | 23 ft | 20 kts | 245° |
| 2026-05-07 12:59 | 41.29754 | 2.08511 | 22 ft | 21 kts | 245° |
| 2026-05-07 12:59 | 41.29693 | 2.08332 | 22 ft | 22 kts | 244° |
| 2026-05-07 12:59 | 41.29625 | 2.08147 | 22 ft | 23 kts | 244° |
| 2026-05-07 13:00 | 41.29557 | 2.07951 | 23 ft | 24 kts | 245° |
| 2026-05-07 13:00 | 41.29501 | 2.07787 | 23 ft | 15 kts | 245° |
| 2026-05-07 13:00 | 41.29432 | 2.07691 | 21 ft | 16 kts | 169° |
| 2026-05-07 13:00 | 41.29323 | 2.07751 | 23 ft | 18 kts | 155° |
| 2026-05-07 13:01 | 41.29222 | 2.07813 | 24 ft | 13 kts | 142° |
| 2026-05-07 13:01 | 41.29221 | 2.07892 | 27 ft | 14 kts | 66° |
| 2026-05-07 13:01 | 41.29209 | 2.07997 | 24 ft | 9 kts | 157° |
| 2026-05-07 13:01 | 41.29177 | 2.08015 | 24 ft | 2 kts | 155° |
| 2026-05-07 13:02 | 41.29174 | 2.08017 | 24 ft | 0 kts | 155° |